Time;durP1;ratioP1;P1;durP2;ratioP2;P2;SDS_P1;SDS_P2;PMS_P1;PMS_P2;Temp;Humidity;BMP_temperature;BMP_pressure;BME280_temperature;BME280_humidity;BME280_pressure;Samples;Min_cycle;Max_cycle;Signal;HPM_P1;HPM_P2
2022/08/18 00:02:01;;;;;;;11.48;8.75;;;28.80;62.50;;;;;;5068678;28;20102;-70
2022/08/18 00:04:27;;;;;;;13.45;8.90;;;28.60;62.60;;;;;;5052343;28;20442;-69
2022/08/18 00:06:54;;;;;;;11.55;8.38;;;28.70;62.60;;;;;;5052307;28;20033;-69
2022/08/18 00:09:20;;;;;;;11.30;8.48;;;28.70;62.70;;;;;;5052050;28;20041;-70
2022/08/18 00:11:46;;;;;;;11.05;8.48;;;28.80;62.70;;;;;;5052013;28;20052;-69
2022/08/18 00:14:18;;;;;;;11.18;7.63;;;28.70;62.70;;;;;;5051994;28;20029;-70
2022/08/18 00:16:44;;;;;;;11.40;8.15;;;28.60;62.70;;;;;;5052052;28;20029;-70
2022/08/18 00:19:10;;;;;;;10.88;8.45;;;28.80;62.70;;;;;;5052207;28;20069;-69
2022/08/18 00:21:36;;;;;;;10.18;7.95;;;28.80;62.70;;;;;;5055535;28;20037;-69
2022/08/18 00:24:03;;;;;;;10.18;7.97;;;28.70;62.70;;;;;;5071974;28;20041;-70
2022/08/18 00:26:29;;;;;;;12.43;8.32;;;28.70;62.70;;;;;;5072027;28;20135;-69
2022/08/18 00:28:55;;;;;;;13.50;8.90;;;28.70;62.70;;;;;;5071566;28;20446;-69
2022/08/18 00:31:21;;;;;;;11.05;8.18;;;28.90;62.70;;;;;;5061966;28;20116;-69
2022/08/18 00:33:47;;;;;;;13.43;8.63;;;28.80;62.70;;;;;;5051942;28;20025;-69
2022/08/18 00:36:13;;;;;;;13.57;8.50;;;28.70;62.70;;;;;;5051841;28;20037;-69
2022/08/18 00:38:39;;;;;;;12.60;8.50;;;28.80;62.70;;;;;;5050592;28;20037;-70
2022/08/18 00:41:06;;;;;;;9.75;7.68;;;28.80;62.70;;;;;;5050093;28;20510;-69
2022/08/18 00:43:43;;;;;;;12.13;8.50;;;28.60;62.60;;;;;;5050270;28;20040;-69
2022/08/18 00:46:18;;;;;;;12.80;9.52;;;28.70;62.70;;;;;;5051622;28;20041;-69
2022/08/18 00:48:45;;;;;;;13.38;8.18;;;28.70;62.70;;;;;;5051379;28;20103;-69
2022/08/18 00:51:25;;;;;;;11.73;8.60;;;28.80;62.70;;;;;;5051483;28;20329;-70
2022/08/18 00:54:04;;;;;;;14.25;9.07;;;28.70;62.70;;;;;;5051780;28;20036;-69
2022/08/18 00:56:39;;;;;;;11.20;8.30;;;28.70;62.70;;;;;;5051568;28;20567;-70
2022/08/18 00:59:21;;;;;;;10.55;8.52;;;28.70;62.70;;;;;;5051405;28;20060;-70
2022/08/18 01:01:50;;;;;;;10.38;8.10;;;28.60;62.70;;;;;;5050135;28;20033;-69
2022/08/18 01:04:32;;;;;;;11.88;8.45;;;28.60;62.70;;;;;;5051349;28;20091;-69
2022/08/18 01:07:06;;;;;;;12.05;8.10;;;28.70;62.80;;;;;;5017062;28;20371;-69
2022/08/18 01:09:32;;;;;;;13.70;9.50;;;28.60;62.90;;;;;;5051231;28;20090;-69
2022/08/18 01:11:58;;;;;;;9.80;7.60;;;28.60;62.90;;;;;;5050653;28;20033;-68
2022/08/18 01:14:24;;;;;;;11.85;8.38;;;28.60;62.90;;;;;;5050826;28;20052;-69
2022/08/18 01:22:31;;;;;;;14.48;8.25;;;28.60;62.90;;;;;;5051122;28;20049;-70
2022/08/18 01:27:44;;;;;;;13.32;8.30;;;28.70;62.90;;;;;;5050856;28;20120;-69
2022/08/18 01:30:13;;;;;;;12.45;8.35;;;28.70;62.90;;;;;;5058740;28;20029;-69
2022/08/18 01:32:40;;;;;;;13.18;9.30;;;28.70;62.90;;;;;;5050934;28;20517;-70
2022/08/18 01:35:12;;;;;;;11.98;7.95;;;28.80;62.90;;;;;;5051058;28;20039;-69
2022/08/18 01:37:39;;;;;;;10.77;7.85;;;28.80;62.90;;;;;;5051058;28;20087;-70
2022/08/18 01:40:07;;;;;;;9.88;8.00;;;28.70;62.90;;;;;;5051187;28;20446;-69
2022/08/18 01:42:35;;;;;;;12.18;9.20;;;28.70;62.90;;;;;;5051091;28;20041;-69
2022/08/18 01:45:03;;;;;;;11.70;8.73;;;28.70;62.90;;;;;;5050933;28;20029;-69
2022/08/18 01:47:31;;;;;;;14.68;9.63;;;28.70;62.80;;;;;;5049804;28;20428;-70
2022/08/18 01:49:57;;;;;;;12.90;8.48;;;28.80;62.80;;;;;;5052817;28;20125;-70
2022/08/18 01:52:24;;;;;;;12.18;9.38;;;28.60;62.90;;;;;;5054659;28;20108;-69
2022/08/18 01:54:52;;;;;;;11.70;9.48;;;28.80;62.80;;;;;;5054836;28;20045;-69
2022/08/18 01:57:19;;;;;;;13.30;10.07;;;28.50;62.90;;;;;;5054713;28;20037;-68
2022/08/18 01:59:45;;;;;;;14.90;8.25;;;28.60;62.90;;;;;;5054755;28;20481;-69
2022/08/18 02:02:15;;;;;;;12.30;7.88;;;28.60;62.90;;;;;;5054388;28;20037;-70
2022/08/18 02:04:42;;;;;;;11.65;7.75;;;28.60;62.90;;;;;;5054397;28;20496;-69
2022/08/18 02:07:11;;;;;;;11.77;9.00;;;28.50;62.90;;;;;;5054535;28;20359;-69
2022/08/18 02:09:38;;;;;;;9.75;7.63;;;28.50;62.90;;;;;;5054658;28;20028;-69
2022/08/18 02:12:06;;;;;;;12.20;8.70;;;28.50;62.90;;;;;;5054301;28;20052;-69
2022/08/18 02:14:34;;;;;;;13.52;8.75;;;28.50;62.90;;;;;;5071671;28;20082;-70
2022/08/18 02:17:01;;;;;;;13.25;8.00;;;28.60;62.90;;;;;;5054279;28;20067;-69
2022/08/18 02:19:31;;;;;;;10.00;8.02;;;28.50;62.90;;;;;;5034891;28;20075;-69
2022/08/18 02:21:57;;;;;;;11.65;8.77;;;28.50;62.90;;;;;;5051657;28;20029;-70
2022/08/18 02:24:23;;;;;;;12.02;8.55;;;28.50;62.70;;;;;;5051566;28;20048;-70
2022/08/18 02:26:49;;;;;;;11.20;7.72;;;28.50;62.80;;;;;;5072471;28;20056;-69
2022/08/18 02:29:15;;;;;;;13.68;8.07;;;28.50;62.70;;;;;;5091639;28;20047;-69
2022/08/18 02:31:41;;;;;;;12.40;8.48;;;28.60;62.70;;;;;;5074418;28;20377;-69
2022/08/18 02:34:07;;;;;;;10.70;7.95;;;28.40;62.70;;;;;;5074462;28;20166;-70
2022/08/18 02:36:33;;;;;;;15.52;8.20;;;28.40;63.10;;;;;;5053045;28;20140;-69
2022/08/18 02:38:59;;;;;;;9.68;7.22;;;28.40;63.20;;;;;;5049858;28;20044;-69
2022/08/18 02:41:27;;;;;;;10.45;8.27;;;28.50;63.30;;;;;;5071128;28;20172;-70
2022/08/18 02:43:53;;;;;;;12.48;7.72;;;28.40;63.40;;;;;;5037977;28;20032;-70
2022/08/18 02:46:19;;;;;;;16.35;7.78;;;28.40;63.40;;;;;;5056738;28;20123;-69
2022/08/18 02:48:47;;;;;;;10.18;6.32;;;28.40;63.40;;;;;;5052284;28;20475;-70
2022/08/18 02:51:15;;;;;;;10.43;7.18;;;28.60;63.40;;;;;;5053715;28;20052;-68
2022/08/18 02:53:43;;;;;;;9.82;7.18;;;28.60;63.40;;;;;;5053954;28;20029;-69
2022/08/18 02:56:24;;;;;;;8.38;7.10;;;28.60;63.40;;;;;;5052392;28;20033;-69
2022/08/18 02:59:00;;;;;;;11.65;7.47;;;28.50;63.50;;;;;;5051128;28;20041;-70
2022/08/18 03:01:40;;;;;;;9.48;7.72;;;28.60;63.50;;;;;;5052616;28;20067;-69
2022/08/18 03:04:08;;;;;;;8.30;6.90;;;28.50;63.20;;;;;;5053475;28;20029;-69
2022/08/18 03:06:36;;;;;;;10.68;7.50;;;28.60;63.50;;;;;;5035691;28;20114;-69
2022/08/18 03:09:07;;;;;;;8.93;7.68;;;28.50;63.20;;;;;;5053356;28;20037;-69
2022/08/18 03:11:34;;;;;;;7.30;5.85;;;28.60;63.50;;;;;;5053016;28;20116;-69
2022/08/18 03:14:00;;;;;;;8.75;6.53;;;28.60;63.40;;;;;;5053310;28;20036;-69
2022/08/18 03:16:31;;;;;;;13.05;8.98;;;28.60;63.40;;;;;;5053135;28;20021;-69
2022/08/18 03:18:59;;;;;;;11.93;7.20;;;28.50;63.40;;;;;;5035751;28;20124;-69
2022/08/18 03:21:30;;;;;;;10.70;7.00;;;28.60;63.20;;;;;;5051720;28;20043;-70
2022/08/18 03:23:57;;;;;;;7.90;6.25;;;28.60;63.30;;;;;;5041491;28;20050;-69
2022/08/18 03:26:24;;;;;;;7.68;6.20;;;28.60;63.40;;;;;;5054487;28;20397;-69
2022/08/18 03:28:52;;;;;;;7.78;6.82;;;28.70;63.40;;;;;;5053196;28;20129;-69
2022/08/18 03:31:21;;;;;;;12.63;7.68;;;28.60;63.40;;;;;;5053009;28;20041;-70
2022/08/18 03:33:48;;;;;;;10.35;6.97;;;28.60;63.30;;;;;;5053025;28;20037;-70
2022/08/18 03:36:19;;;;;;;14.20;8.60;;;28.70;63.20;;;;;;5052264;28;20056;-69
2022/08/18 03:38:47;;;;;;;11.30;7.95;;;28.70;62.50;;;;;;5052770;28;20035;-69
2022/08/18 03:41:16;;;;;;;10.90;8.45;;;28.70;63.20;;;;;;5069893;28;20548;-69
2022/08/18 03:43:42;;;;;;;11.23;8.00;;;28.70;63.20;;;;;;5060253;28;20096;-70
2022/08/18 03:46:12;;;;;;;11.98;7.70;;;28.70;63.10;;;;;;5050124;28;20045;-69
2022/08/18 03:48:40;;;;;;;10.07;6.32;;;28.70;63.20;;;;;;5049917;28;20112;-69
2022/08/18 03:51:26;;;;;;;10.02;7.03;;;28.70;63.10;;;;;;5049910;28;20103;-69
2022/08/18 03:53:57;;;;;;;10.27;6.70;;;28.70;63.10;;;;;;5049759;28;20460;-68
2022/08/18 03:56:26;;;;;;;8.45;6.72;;;28.70;63.10;;;;;;5049933;28;20041;-70
2022/08/18 03:58:56;;;;;;;7.90;6.70;;;28.80;63.10;;;;;;5049938;28;20037;-69
2022/08/18 04:01:26;;;;;;;13.60;6.97;;;28.70;63.00;;;;;;5049802;28;20033;-69
2022/08/18 04:03:55;;;;;;;12.82;7.32;;;28.80;63.00;;;;;;5049747;28;20060;-74
2022/08/18 04:06:27;;;;;;;11.98;7.22;;;28.80;62.50;;;;;;5049687;28;20159;-74
2022/08/18 04:08:55;;;;;;;8.60;7.10;;;28.80;61.90;;;;;;5032963;28;20040;-73
2022/08/18 04:11:22;;;;;;;14.63;7.55;;;28.70;60.50;;;;;;5032929;28;20045;-73
2022/08/18 04:13:49;;;;;;;10.77;8.38;;;28.70;60.00;;;;;;5049186;28;20460;-73
2022/08/18 04:16:15;;;;;;;8.65;7.10;;;28.70;59.30;;;;;;5049627;28;20107;-73
2022/08/18 04:18:41;;;;;;;13.88;8.20;;;28.50;59.00;;;;;;5050637;28;20147;-73
2022/08/18 04:21:12;;;;;;;10.05;7.43;;;28.60;59.00;;;;;;5054754;28;20166;-72
2022/08/18 04:23:39;;;;;;;10.77;8.38;;;28.60;61.80;;;;;;5056441;28;20033;-73
2022/08/18 04:26:07;;;;;;;11.27;7.80;;;29.00;64.40;;;;;;5052047;28;20033;-72
2022/08/18 04:28:34;;;;;;;11.68;8.35;;;29.20;65.20;;;;;;5050454;28;20127;-71
2022/08/18 04:31:09;;;;;;;11.65;9.02;;;29.30;65.00;;;;;;5052042;28;20059;-71
2022/08/18 04:33:36;;;;;;;13.95;8.45;;;29.20;61.10;;;;;;5051875;28;20037;-74
2022/08/18 04:36:15;;;;;;;10.10;7.30;;;29.30;60.10;;;;;;5051897;28;20121;-73
2022/08/18 04:38:42;;;;;;;7.78;6.97;;;29.20;60.30;;;;;;5051602;28;20060;-73
2022/08/18 04:41:12;;;;;;;9.93;7.60;;;29.20;60.30;;;;;;5051385;28;20555;-72
2022/08/18 04:43:39;;;;;;;11.10;7.88;;;29.10;60.40;;;;;;5051643;28;20087;-73
2022/08/18 04:46:05;;;;;;;10.85;7.18;;;29.00;60.50;;;;;;5051677;28;20037;-72
2022/08/18 04:48:34;;;;;;;10.32;7.60;;;29.00;60.50;;;;;;5051749;28;20040;-71
2022/08/18 04:51:12;;;;;;;9.77;7.40;;;29.00;60.60;;;;;;5051758;28;20041;-73
2022/08/18 04:53:45;;;;;;;10.45;6.68;;;29.10;60.60;;;;;;5049956;28;20367;-72
2022/08/18 04:56:20;;;;;;;12.88;7.50;;;29.10;60.70;;;;;;5050662;28;20079;-72
2022/08/18 04:58:51;;;;;;;8.98;7.07;;;28.90;60.10;;;;;;5051478;28;20392;-72
2022/08/18 05:01:22;;;;;;;5.25;3.75;;;29.00;60.60;;;;;;5051838;28;20052;-72
2022/08/18 05:03:50;;;;;;;1.38;1.17;;;29.00;59.00;;;;;;5051242;28;20033;-72
2022/08/18 05:06:17;;;;;;;2.92;2.67;;;28.80;57.90;;;;;;5051296;28;20099;-72
2022/08/18 05:08:43;;;;;;;7.25;4.70;;;28.70;57.90;;;;;;5051293;28;20503;-71
2022/08/18 05:11:09;;;;;;;14.20;7.45;;;28.70;58.80;;;;;;5051359;28;20367;-72
2022/08/18 05:13:35;;;;;;;5.55;3.85;;;28.70;58.70;;;;;;5049890;28;20749;-73
2022/08/18 05:16:02;;;;;;;4.13;3.38;;;28.60;58.90;;;;;;5050110;28;20379;-72
2022/08/18 05:18:39;;;;;;;5.63;4.38;;;28.70;58.90;;;;;;5047376;28;20063;-70
2022/08/18 05:21:12;;;;;;;5.97;4.30;;;28.80;58.90;;;;;;5050284;28;20040;-72
2022/08/18 05:23:43;;;;;;;4.55;2.55;;;28.60;58.90;;;;;;5044783;28;20041;-71
2022/08/18 05:26:12;;;;;;;7.28;5.57;;;28.60;60.80;;;;;;5054023;28;20033;-71
2022/08/18 05:28:39;;;;;;;5.43;3.13;;;28.60;61.00;;;;;;5051566;28;20032;-72
2022/08/18 05:31:07;;;;;;;2.88;2.10;;;28.60;61.30;;;;;;5048372;28;20086;-70
2022/08/18 05:33:35;;;;;;;14.25;7.47;;;28.70;60.90;;;;;;5042964;28;20063;-71
2022/08/18 05:36:04;;;;;;;13.52;10.10;;;28.60;61.10;;;;;;5053310;28;20144;-71
2022/08/18 05:38:47;;;;;;;11.00;8.35;;;28.60;59.60;;;;;;5054204;28;20085;-71
2022/08/18 05:41:24;;;;;;;10.90;8.82;;;28.60;59.20;;;;;;5051663;28;20589;-71
2022/08/18 05:43:51;;;;;;;15.10;8.55;;;28.80;59.00;;;;;;5052995;28;20043;-70
2022/08/18 05:46:19;;;;;;;9.30;7.43;;;28.70;61.10;;;;;;5053826;28;20036;-71
2022/08/18 05:48:45;;;;;;;12.18;7.35;;;28.80;62.50;;;;;;5043951;28;20036;-71
2022/08/18 05:51:27;;;;;;;10.95;8.55;;;28.80;61.80;;;;;;5044481;28;20037;-70
2022/08/18 05:56:46;;;;;;;9.50;7.25;;;28.80;59.80;;;;;;5053643;28;20100;-70
2022/08/18 05:59:18;;;;;;;11.23;6.70;;;28.80;59.70;;;;;;5056510;28;20060;-72
2022/08/18 06:01:50;;;;;;;;;;;28.80;59.60;;;;;;5066069;28;20032;-73
2022/08/18 06:04:22;;;;;;;9.02;7.82;;;28.80;59.30;;;;;;5068218;28;19908;-74
2022/08/18 06:06:51;;;;;;;9.70;6.70;;;28.70;58.70;;;;;;5062819;28;20381;-73
2022/08/18 06:09:58;;;;;;;9.77;6.80;;;28.80;59.10;;;;;;5061531;28;20024;-70
2022/08/18 06:12:34;;;;;;;9.27;6.93;;;28.90;59.30;;;;;;4979051;28;20113;-69
2022/08/18 06:15:09;;;;;;;10.57;6.60;;;28.80;59.40;;;;;;4987794;28;20089;-67
2022/08/18 06:17:53;;;;;;;10.23;7.82;;;28.80;59.00;;;;;;4988901;28;20101;-69
2022/08/18 06:20:43;;;;;;;8.48;6.28;;;28.80;58.50;;;;;;4953694;28;20065;-69
2022/08/18 06:23:40;;;;;;;11.25;7.00;;;28.90;59.00;;;;;;4950662;28;20054;-70
2022/08/18 06:26:40;;;;;;;11.35;7.32;;;28.90;58.90;;;;;;4971382;28;20085;-72
2022/08/18 06:29:24;;;;;;;14.25;8.07;;;28.70;59.00;;;;;;4954312;28;20076;-73
2022/08/18 06:32:28;;;;;;;12.00;8.05;;;28.60;59.00;;;;;;4970278;28;20050;-71
2022/08/18 06:35:04;;;;;;;10.45;7.63;;;28.60;58.80;;;;;;4902520;29;20055;-71
2022/08/18 06:38:37;;;;;;;8.98;7.25;;;28.60;58.90;;;;;;4914174;29;20076;-71
2022/08/18 06:40:26;;;;;;;11.25;7.20;;;28.60;59.30;;;;;;4913530;29;20063;-72
2022/08/18 06:42:53;;;;;;;9.43;8.07;;;28.60;59.50;;;;;;4914597;29;20051;-70
2022/08/18 06:45:25;;;;;;;9.23;7.95;;;28.60;59.60;;;;;;4916116;29;20402;-73
2022/08/18 06:47:58;;;;;;;11.13;7.72;;;28.50;59.60;;;;;;4962593;28;20035;-73
2022/08/18 06:51:03;;;;;;;9.60;6.68;;;28.70;59.50;;;;;;4950830;28;20035;-70
2022/08/18 06:53:59;;;;;;;17.67;7.32;;;28.60;59.60;;;;;;4925897;29;20549;-69
2022/08/18 06:56:40;;;;;;;10.18;7.03;;;28.60;59.70;;;;;;4934125;29;20061;-69
2022/08/18 06:59:25;;;;;;;9.35;7.32;;;28.70;59.80;;;;;;4953653;29;20039;-72
2022/08/18 07:02:20;;;;;;;13.32;7.00;;;28.80;59.80;;;;;;4953280;29;20047;-71
2022/08/18 07:05:06;;;;;;;6.80;5.40;;;28.70;59.80;;;;;;4927501;29;20137;-70
2022/08/18 07:07:32;;;;;;;7.60;6.15;;;28.80;59.90;;;;;;4933836;29;20087;-72
2022/08/18 07:09:59;;;;;;;12.45;6.53;;;28.70;59.60;;;;;;4933456;29;20130;-70
2022/08/18 07:12:27;;;;;;;11.75;6.78;;;28.70;59.60;;;;;;4959268;28;20174;-70
2022/08/18 07:14:57;;;;;;;9.20;6.25;;;28.70;59.60;;;;;;4990759;28;20042;-69
2022/08/18 07:17:28;;;;;;;14.65;7.47;;;28.80;59.70;;;;;;4990859;28;20459;-70
2022/08/18 07:20:17;;;;;;;9.15;6.28;;;28.70;59.60;;;;;;4975168;28;20102;-70
2022/08/18 07:23:03;;;;;;;10.48;6.18;;;28.70;59.60;;;;;;4987567;28;20462;-70
2022/08/18 07:25:44;;;;;;;11.68;7.93;;;28.70;59.40;;;;;;4990371;28;20423;-69
2022/08/18 07:28:29;;;;;;;9.85;6.45;;;28.70;59.60;;;;;;5006279;28;20049;-70
2022/08/18 07:31:11;;;;;;;11.45;7.03;;;28.70;59.60;;;;;;5010803;28;20045;-69
2022/08/18 07:33:41;;;;;;;14.52;7.00;;;28.70;59.40;;;;;;5002723;28;20089;-70
2022/08/18 07:36:09;;;;;;;3.53;2.42;;;28.70;59.50;;;;;;4991431;28;20093;-69
2022/08/18 07:38:41;;;;;;;9.07;6.07;;;28.60;59.30;;;;;;4990856;28;20043;-68
2022/08/18 07:41:13;;;;;;;12.33;6.63;;;28.60;59.50;;;;;;5005645;28;20045;-72
2022/08/18 07:43:50;;;;;;;8.48;5.70;;;28.70;59.60;;;;;;5051546;28;20282;-71
2022/08/18 07:46:43;;;;;;;8.52;5.72;;;28.70;59.50;;;;;;5052341;28;20448;-68
2022/08/18 07:49:15;;;;;;;;;;;28.70;59.40;;;;;;5072759;28;20059;-69
2022/08/18 07:51:46;;;;;;;7.63;6.10;;;28.70;59.50;;;;;;5090416;28;20340;-71
2022/08/18 07:54:41;;;;;;;11.18;5.85;;;28.60;59.50;;;;;;5090185;28;20036;-71
2022/08/18 07:57:35;;;;;;;7.30;5.82;;;28.70;59.60;;;;;;5090529;28;20173;-70
2022/08/18 08:00:20;;;;;;;12.20;7.28;;;28.40;59.70;;;;;;5070082;28;20036;-70
2022/08/18 08:03:16;;;;;;;10.93;7.22;;;28.50;59.30;;;;;;5068730;28;20401;-68
2022/08/18 08:05:54;;;;;;;9.88;6.55;;;28.40;59.60;;;;;;5052418;28;20048;-69
2022/08/18 08:08:41;;;;;;;2.13;1.85;;;28.60;59.90;;;;;;5068227;28;20070;-69
2022/08/18 08:11:27;;;;;;;9.52;5.82;;;28.40;59.90;;;;;;5066359;28;20048;-67
2022/08/18 08:14:08;;;;;;;7.45;6.07;;;28.50;60.00;;;;;;5063951;28;20492;-67
2022/08/18 08:16:54;;;;;;;8.38;6.13;;;28.40;60.00;;;;;;5067046;28;20106;-69
2022/08/18 08:19:43;;;;;;;7.90;5.80;;;28.40;60.00;;;;;;5043333;28;20037;-68
2022/08/18 08:22:36;;;;;;;5.80;5.10;;;28.40;59.90;;;;;;5014638;28;20053;-69
2022/08/18 08:25:02;;;;;;;8.80;6.10;;;28.50;59.90;;;;;;5012666;28;20034;-71
2022/08/18 08:28:08;;;;;;;11.63;6.47;;;28.50;60.00;;;;;;5013977;28;20053;-70
2022/08/18 08:30:45;;;;;;;7.63;6.70;;;28.50;59.90;;;;;;5010098;28;20037;-70
2022/08/18 08:33:11;;;;;;;8.13;5.32;;;28.50;60.10;;;;;;5016042;28;20057;-69
2022/08/18 08:36:01;;;;;;;10.88;7.30;;;28.60;60.00;;;;;;4992724;28;20030;-69
2022/08/18 08:38:53;;;;;;;7.47;5.88;;;28.50;59.70;;;;;;5011529;28;20046;-69
2022/08/18 08:41:28;;;;;;;7.22;6.53;;;28.60;59.90;;;;;;5012391;28;20054;-67
2022/08/18 08:44:28;;;;;;;2.17;1.98;;;28.60;60.10;;;;;;5016919;28;20486;-67
2022/08/18 08:47:03;;;;;;;4.05;3.30;;;28.50;60.10;;;;;;5010224;28;20037;-72
2022/08/18 08:49:53;;;;;;;8.98;5.35;;;28.50;61.10;;;;;;5015338;28;20044;-70
2022/08/18 08:52:31;;;;;;;3.10;2.78;;;28.50;61.40;;;;;;5008970;28;20534;-70
2022/08/18 08:55:10;;;;;;;12.02;7.93;;;28.60;60.90;;;;;;5006986;28;20084;-69
2022/08/18 08:57:41;;;;;;;6.50;5.03;;;28.70;60.50;;;;;;5013347;28;20550;-68
2022/08/18 09:00:11;;;;;;;10.52;5.40;;;28.50;60.10;;;;;;5053160;28;20045;-71
2022/08/18 09:03:18;;;;;;;10.07;6.82;;;28.70;59.90;;;;;;5064167;28;20115;-71
2022/08/18 09:06:21;;;;;;;8.68;5.85;;;28.60;60.10;;;;;;5054786;28;20073;-72
2022/08/18 09:08:56;;;;;;;6.93;5.50;;;28.70;60.20;;;;;;5044681;28;20036;-69
2022/08/18 09:11:23;;;;;;;9.45;6.28;;;28.60;60.30;;;;;;5051261;28;20030;-73
2022/08/18 09:14:23;;;;;;;14.13;6.22;;;28.60;60.30;;;;;;5051208;28;20055;-72
2022/08/18 09:17:08;;;;;;;12.57;6.32;;;28.70;60.30;;;;;;5057976;28;20120;-72
2022/08/18 09:19:46;;;;;;;5.90;4.28;;;28.70;60.30;;;;;;5051153;28;20692;-68
2022/08/18 09:22:21;;;;;;;6.88;5.88;;;28.60;60.20;;;;;;5052000;28;20037;-69
2022/08/18 09:24:53;;;;;;;11.32;6.78;;;28.60;60.10;;;;;;5047007;28;20135;-70
2022/08/18 09:27:40;;;;;;;6.97;6.28;;;28.70;60.10;;;;;;5060169;28;20025;-70
2022/08/18 09:30:27;;;;;;;1.77;1.67;;;28.80;60.10;;;;;;5052005;28;20436;-72
2022/08/18 09:33:13;;;;;;;6.40;5.68;;;28.80;60.10;;;;;;5054612;28;20591;-71
2022/08/18 09:35:51;;;;;;;8.20;5.88;;;28.60;60.00;;;;;;5055567;28;20029;-71
2022/08/18 09:41:34;;;;;;;6.47;5.18;;;29.40;66.80;;;;;;5052665;28;20052;-72
2022/08/18 09:44:08;;;;;;;7.82;5.97;;;29.50;65.90;;;;;;5057149;28;20043;-72
2022/08/18 09:46:46;;;;;;;7.07;4.43;;;29.30;64.10;;;;;;5055479;28;20090;-74
2022/08/18 09:49:24;;;;;;;8.98;5.80;;;29.30;61.30;;;;;;5051334;28;20557;-73
2022/08/18 09:51:51;;;;;;;7.35;5.30;;;29.10;61.00;;;;;;5052622;28;20041;-72
2022/08/18 09:54:20;;;;;;;5.55;4.65;;;29.10;60.70;;;;;;5052479;28;20034;-71
2022/08/18 09:56:49;;;;;;;7.78;5.85;;;29.00;60.70;;;;;;5052484;28;20104;-71
2022/08/18 09:59:32;;;;;;;10.80;6.63;;;29.00;62.80;;;;;;5053388;28;20029;-69
2022/08/18 10:02:12;;;;;;;7.25;5.50;;;29.40;63.00;;;;;;5056711;28;20086;-73
2022/08/18 10:04:49;;;;;;;7.35;6.47;;;29.70;66.00;;;;;;5051046;28;20028;-70
2022/08/18 10:07:36;;;;;;;9.98;6.53;;;29.80;64.60;;;;;;5051434;28;20044;-71
2022/08/18 10:10:13;;;;;;;6.90;6.20;;;29.80;60.40;;;;;;5052931;28;20024;-71
2022/08/18 10:12:55;;;;;;;8.68;5.70;;;29.40;60.50;;;;;;5051806;28;20044;-71
2022/08/18 10:15:24;;;;;;;6.72;5.95;;;29.50;60.00;;;;;;5058714;28;20646;-70
2022/08/18 10:18:17;;;;;;;7.70;5.80;;;29.50;59.70;;;;;;5061025;28;20048;-70
2022/08/18 10:21:21;;;;;;;9.50;6.40;;;29.40;60.00;;;;;;5051982;28;20461;-69
2022/08/18 10:23:51;;;;;;;;;;;29.40;60.00;;;;;;5063112;28;20032;-69
2022/08/18 10:26:41;;;;;;;7.85;5.32;;;29.40;60.00;;;;;;5060530;28;19912;-70
2022/08/18 10:29:10;;;;;;;6.07;5.47;;;29.40;60.20;;;;;;5034220;28;20072;-69
2022/08/18 10:31:54;;;;;;;6.07;4.97;;;29.30;60.40;;;;;;5038800;28;20493;-69
2022/08/18 10:34:44;;;;;;;8.48;6.05;;;29.30;60.50;;;;;;5043334;28;20042;-70
2022/08/18 10:37:21;;;;;;;9.85;5.30;;;29.20;60.30;;;;;;5038823;28;20045;-70
2022/08/18 10:40:03;;;;;;;10.05;6.40;;;29.30;60.50;;;;;;5033019;28;20430;-70
2022/08/18 10:42:34;;;;;;;7.88;6.70;;;29.30;60.50;;;;;;5032923;28;20096;-69
2022/08/18 10:45:24;;;;;;;9.98;6.13;;;29.40;59.90;;;;;;5041312;28;20044;-69
2022/08/18 10:48:16;;;;;;;8.07;6.15;;;29.30;60.60;;;;;;5043967;28;20044;-69
2022/08/18 10:51:02;;;;;;;7.93;6.10;;;29.30;60.50;;;;;;5031390;28;20099;-71
2022/08/18 10:53:51;;;;;;;6.65;6.00;;;29.30;60.60;;;;;;5040507;28;20092;-69
2022/08/18 10:56:37;;;;;;;9.27;5.43;;;29.10;60.80;;;;;;5033062;28;20034;-69
2022/08/18 10:59:11;;;;;;;12.80;6.78;;;29.20;60.80;;;;;;5034435;28;20041;-70
2022/08/18 11:01:55;;;;;;;5.45;4.55;;;29.20;60.90;;;;;;5034593;28;20044;-71
2022/08/18 11:04:30;;;;;;;7.32;6.05;;;29.20;60.80;;;;;;5039544;28;20030;-69
2022/08/18 11:07:05;;;;;;;7.20;5.75;;;29.30;60.90;;;;;;5050800;28;20044;-69
2022/08/18 11:09:32;;;;;;;9.43;6.03;;;29.20;60.80;;;;;;5058174;28;20423;-70
2022/08/18 11:12:00;;;;;;;16.58;6.22;;;29.30;60.70;;;;;;5051844;28;20443;-72
2022/08/18 11:14:33;;;;;;;7.53;5.63;;;29.20;60.70;;;;;;5056706;28;20036;-71
2022/08/18 11:17:36;;;;;;;8.07;4.82;;;29.20;61.00;;;;;;5044702;28;20540;-75
2022/08/18 11:20:04;;;;;;;;;;;29.20;61.00;;;;;;5042200;28;20128;-76
2022/08/18 11:22:32;;;;;;;11.43;6.78;;;29.30;61.20;;;;;;5047866;28;20377;-72
2022/08/18 11:25:00;;;;;;;8.30;3.92;;;29.20;61.30;;;;;;5040068;28;20030;-71
2022/08/18 11:27:29;;;;;;;5.35;4.85;;;29.20;61.40;;;;;;5044090;28;20087;-71
2022/08/18 11:30:00;;;;;;;8.57;6.38;;;29.20;61.50;;;;;;5037906;28;20029;-70
2022/08/18 11:32:35;;;;;;;8.75;5.97;;;29.30;61.40;;;;;;5037478;28;20800;-71
2022/08/18 11:35:03;;;;;;;7.55;5.28;;;29.20;61.50;;;;;;5041042;28;20434;-72
2022/08/18 11:37:46;;;;;;;6.10;4.20;;;29.10;61.70;;;;;;5053579;28;20036;-72
2022/08/18 11:40:34;;;;;;;12.57;6.97;;;29.20;61.70;;;;;;5038054;28;20163;-73
2022/08/18 11:43:00;;;;;;;5.93;5.18;;;29.10;61.60;;;;;;5039407;28;20100;-74
2022/08/18 11:45:33;;;;;;;8.52;5.53;;;29.10;61.80;;;;;;5038238;28;20116;-77
2022/08/18 11:48:14;;;;;;;10.75;6.13;;;29.00;61.80;;;;;;5050964;28;20036;-72
2022/08/18 11:50:52;;;;;;;7.70;5.45;;;29.00;62.10;;;;;;5039533;28;20558;-75
2022/08/18 11:53:41;;;;;;;8.98;5.85;;;29.10;62.00;;;;;;5057271;28;20037;-72
2022/08/18 11:56:33;;;;;;;4.13;3.30;;;29.00;62.50;;;;;;5050244;28;20386;-74
2022/08/18 11:59:02;;;;;;;6.97;5.63;;;29.00;62.90;;;;;;5051667;28;20037;-74
2022/08/18 12:01:50;;;;;;;7.68;5.53;;;29.00;62.50;;;;;;5053347;28;20378;-70
2022/08/18 12:04:19;;;;;;;10.68;5.93;;;28.90;61.50;;;;;;5050354;28;20040;-71
2022/08/18 12:07:13;;;;;;;6.18;5.15;;;29.00;62.00;;;;;;5048850;28;20033;-73
2022/08/18 12:10:29;;;;;;;7.85;6.20;;;29.10;61.90;;;;;;5008314;28;20156;-71
2022/08/18 12:12:59;;;;;;;8.40;5.55;;;28.90;61.30;;;;;;4949403;29;20047;-69
2022/08/18 12:15:29;;;;;;;7.40;6.03;;;29.00;61.80;;;;;;4945682;29;20032;-73
2022/08/18 12:17:55;;;;;;;7.30;5.93;;;29.00;61.70;;;;;;4950639;29;20035;-69
2022/08/18 12:20:21;;;;;;;8.05;5.35;;;29.10;61.80;;;;;;4950345;29;20393;-73
2022/08/18 12:22:48;;;;;;;5.32;4.82;;;29.00;62.00;;;;;;4950665;29;20628;-74
2022/08/18 12:25:16;;;;;;;13.35;5.75;;;28.90;61.80;;;;;;4950564;29;20062;-72
2022/08/18 12:27:42;;;;;;;9.35;5.32;;;29.00;62.50;;;;;;4928411;29;20064;-72
2022/08/18 12:30:09;;;;;;;9.65;5.88;;;29.00;62.00;;;;;;4931038;29;20035;-70
2022/08/18 12:32:36;;;;;;;7.05;5.72;;;28.90;61.50;;;;;;4931189;29;20139;-71
2022/08/18 12:35:03;;;;;;;7.75;5.63;;;29.00;62.50;;;;;;4915014;29;20043;-69
2022/08/18 12:37:30;;;;;;;9.82;5.47;;;28.90;61.80;;;;;;4931019;29;20457;-71
2022/08/18 12:39:57;;;;;;;8.38;6.30;;;29.10;62.50;;;;;;4930891;29;20061;-72
2022/08/18 12:42:24;;;;;;;6.53;5.05;;;29.00;62.10;;;;;;4931198;29;20127;-70
2022/08/18 12:44:51;;;;;;;6.53;4.82;;;28.90;61.90;;;;;;4930981;29;20075;-72
2022/08/18 12:47:23;;;;;;;8.57;5.88;;;29.00;62.00;;;;;;4947503;29;20051;-70
2022/08/18 12:49:49;;;;;;;8.77;5.82;;;28.90;61.50;;;;;;5000021;28;20046;-71
2022/08/18 12:52:15;;;;;;;8.73;5.65;;;29.10;62.00;;;;;;5008298;28;20772;-71
2022/08/18 12:54:45;;;;;;;8.50;6.20;;;28.90;61.20;;;;;;5007908;28;20026;-71
2022/08/18 12:57:26;;;;;;;7.75;5.53;;;29.00;61.80;;;;;;5008921;28;20064;-71
2022/08/18 12:59:53;;;;;;;7.15;5.30;;;29.00;61.70;;;;;;5050422;28;20167;-71
2022/08/18 13:02:20;;;;;;;8.00;5.38;;;29.00;61.50;;;;;;5051487;28;20079;-71
2022/08/18 13:04:46;;;;;;;10.15;5.50;;;29.00;61.60;;;;;;5051621;28;20033;-69
2022/08/18 13:07:14;;;;;;;8.30;6.45;;;29.00;61.60;;;;;;5051239;28;20112;-70
2022/08/18 13:09:42;;;;;;;7.35;5.95;;;29.00;61.50;;;;;;5051249;28;20044;-70
2022/08/18 13:12:08;;;;;;;5.97;4.75;;;29.00;61.60;;;;;;5051374;28;20083;-71
2022/08/18 13:14:34;;;;;;;6.63;5.90;;;29.00;61.60;;;;;;5051252;28;20063;-70
2022/08/18 13:17:01;;;;;;;8.60;4.70;;;29.00;61.60;;;;;;5051289;28;20060;-70
2022/08/18 13:19:28;;;;;;;8.75;5.57;;;29.00;61.50;;;;;;5049922;28;20030;-69
2022/08/18 13:21:54;;;;;;;11.82;5.70;;;29.00;61.70;;;;;;5050014;28;20041;-70
2022/08/18 13:24:20;;;;;;;7.72;5.68;;;29.00;61.70;;;;;;5051302;28;20120;-70
2022/08/18 13:26:47;;;;;;;10.63;6.45;;;28.90;61.10;;;;;;5050822;28;20044;-70
2022/08/18 13:29:16;;;;;;;7.97;4.55;;;29.00;61.70;;;;;;5051002;28;20037;-70
2022/08/18 13:31:42;;;;;;;7.72;4.50;;;29.10;61.60;;;;;;5051373;28;20033;-69
2022/08/18 13:34:08;;;;;;;9.32;6.40;;;29.10;61.50;;;;;;5050017;28;20037;-70